Temp: 19.3°C   Baro: 1010.5mb
  Wind: 4.0mph   Dir: SSW (193°)
  Rain: 0.0mm (0.0mm/hr)
  Sun: 218W/m2  Humidity: 81%

Historic data

Bath Spa Weather Station Historical Data
Daily Summary for June 09, 2023 Units:  Both    English   Metric
Daily Weekly Monthly Yearly Custom
  High: Low: Average:
Temperature: 82.4 °F /  28 °C 50.7 °F /  10.4 °C 65.8 °F /  18.8 °C
Dew Point: 64.9 °F /  18.3 °C 46.4 °F /  8 °C 55.6 °F /  13.1 °C
Humidity: 86% 53% 71%
Wind Speed: 10.4mph /  16.7km/h - 5.6mph /  9km/h
Wind Gust: 22mph /  35.4km/h - -
Wind- - ENE
Pressure: 29.99 in /  1015.5 hPa 29.86 in /  1011.1 hPa -
Precipitation: 0.00 in /  0 mm    
Historical Graphs
 
 
Tabular Data for June 09, 2023
Time Temperature Dew Point Pressure Wind Wind Speed Wind Gust Humidity Rainfall Rate (Hourly) solar
00:09 57.9 °F /  14.4 °C 50.7 °F /  10.4 °C 29.98in /  1015.1hPa East 4.5mph /  7.2km/h 15mph /  24.1km/h 77% 0.00in /  0mm 0 W/m2
00:14 57.7 °F /  14.3 °C 50.5 °F /  10.3 °C 29.98in /  1015.1hPa ENE 7.5mph /  12.1km/h 15mph /  24.1km/h 77% 0.00in /  0mm 0 W/m2
00:19 57.5 °F /  14.2 °C 50.3 °F /  10.2 °C 29.98in /  1015.1hPa ENE 4.3mph /  6.9km/h 12mph /  19.3km/h 77% 0.00in /  0mm 0 W/m2
00:24 57.2 °F /  14 °C 50 °F /  10 °C 29.98in /  1015.1hPa East 5.6mph /  9km/h 15mph /  24.1km/h 77% 0.00in /  0mm 0 W/m2
00:29 57 °F /  13.9 °C 49.8 °F /  9.9 °C 29.98in /  1015.1hPa East 6mph /  9.7km/h 13mph /  20.9km/h 77% 0.00in /  0mm 0 W/m2
00:34 56.8 °F /  13.8 °C 49.9 °F /  9.9 °C 29.98in /  1015.1hPa East 8mph /  12.9km/h 14mph /  22.5km/h 77.8% 0.00in /  0mm 0 W/m2
00:39 56.7 °F /  13.7 °C 49.8 °F /  9.9 °C 29.98in /  1015.1hPa ENE 5.6mph /  9km/h 14mph /  22.5km/h 78% 0.00in /  0mm 0 W/m2
00:44 56.5 °F /  13.6 °C 49.5 °F /  9.7 °C 29.98in /  1015.1hPa ESE 4.5mph /  7.2km/h 10mph /  16.1km/h 77.6% 0.00in /  0mm 0 W/m2
00:49 56.2 °F /  13.4 °C 49.4 °F /  9.7 °C 29.98in /  1015.1hPa NE 3.6mph /  5.8km/h 9mph /  14.5km/h 78% 0.00in /  0mm 0 W/m2
00:54 56 °F /  13.3 °C 49.2 °F /  9.6 °C 29.98in /  1015.1hPa East 5.8mph /  9.3km/h 14mph /  22.5km/h 78% 0.00in /  0mm 0 W/m2
00:59 55.8 °F /  13.2 °C 48.9 °F /  9.4 °C 29.98in /  1015.1hPa East 3.7mph /  6km/h 14mph /  22.5km/h 78% 0.00in /  0mm 0 W/m2
01:04 55.6 °F /  13.1 °C 48.9 °F /  9.4 °C 29.98in /  1015.1hPa ESE 6.3mph /  10.1km/h 11mph /  17.7km/h 78% 0.00in /  0mm 0 W/m2
01:09 55.3 °F /  12.9 °C 48.7 °F /  9.3 °C 29.98in /  1015.1hPa ESE 3.7mph /  6km/h 10mph /  16.1km/h 78% 0.00in /  0mm 0 W/m2
01:14 55.1 °F /  12.8 °C 48.5 °F /  9.2 °C 29.98in /  1015.1hPa East 4mph /  6.4km/h 14mph /  22.5km/h 78% 0.00in /  0mm 0 W/m2
01:19 54.9 °F /  12.7 °C 48.3 °F /  9.1 °C 29.98in /  1015.1hPa East 3.7mph /  6km/h 11mph /  17.7km/h 78% 0.00in /  0mm 0 W/m2
01:24 54.8 °F /  12.7 °C 48.1 °F /  8.9 °C 29.98in /  1015.1hPa ESE 3.7mph /  6km/h 15mph /  24.1km/h 78% 0.00in /  0mm 0 W/m2
01:29 54.7 °F /  12.6 °C 48 °F /  8.9 °C 29.98in /  1015.1hPa East 5.2mph /  8.4km/h 15mph /  24.1km/h 78% 0.00in /  0mm 0 W/m2
01:34 54.4 °F /  12.4 °C 47.7 °F /  8.7 °C 29.98in /  1015.1hPa ENE 4.6mph /  7.4km/h 13mph /  20.9km/h 78% 0.00in /  0mm 0 W/m2
01:39 54.3 °F /  12.4 °C 47.8 °F /  8.8 °C 29.98in /  1015.1hPa ENE 5.1mph /  8.2km/h 15mph /  24.1km/h 78.6% 0.00in /  0mm 0 W/m2
01:44 54.1 °F /  12.3 °C 47.8 °F /  8.8 °C 29.98in /  1015.1hPa ESE 4.7mph /  7.6km/h 8mph /  12.9km/h 79% 0.00in /  0mm 0 W/m2
01:49 54 °F /  12.2 °C 47.7 °F /  8.7 °C 29.98in /  1015.1hPa East 7mph /  11.3km/h 14mph /  22.5km/h 79% 0.00in /  0mm 0 W/m2
01:54 53.8 °F /  12.1 °C 47.7 °F /  8.7 °C 29.98in /  1015.1hPa East 4.8mph /  7.7km/h 17mph /  27.4km/h 79.6% 0.00in /  0mm 0 W/m2
01:59 53.7 °F /  12.1 °C 47.8 °F /  8.8 °C 29.98in /  1015.1hPa SE 4.6mph /  7.4km/h 11mph /  17.7km/h 80% 0.00in /  0mm 0 W/m2
02:04 53.5 °F /  11.9 °C 47.6 °F /  8.7 °C 29.98in /  1015.1hPa ENE 4mph /  6.4km/h 11mph /  17.7km/h 80% 0.00in /  0mm 0 W/m2
02:09 53.4 °F /  11.9 °C 47.5 °F /  8.6 °C 29.99in /  1015.5hPa ESE 6.3mph /  10.1km/h 11mph /  17.7km/h 80% 0.00in /  0mm 0 W/m2
02:14 53.2 °F /  11.8 °C 47.5 °F /  8.6 °C 29.98in /  1015.1hPa East 7.2mph /  11.6km/h 13mph /  20.9km/h 81% 0.00in /  0mm 0 W/m2
02:19 53.1 °F /  11.7 °C 47.4 °F /  8.6 °C 29.98in /  1015.1hPa ENE 6.3mph /  10.1km/h 14mph /  22.5km/h 81% 0.00in /  0mm 0 W/m2
02:24 53.1 °F /  11.7 °C 47.3 °F /  8.5 °C 29.98in /  1015.1hPa East 2.7mph /  4.3km/h 11mph /  17.7km/h 81% 0.00in /  0mm 0 W/m2
02:29 52.9 °F /  11.6 °C 47.3 °F /  8.5 °C 29.98in /  1015.1hPa East 4.2mph /  6.8km/h 13mph /  20.9km/h 81% 0.00in /  0mm 0 W/m2
02:34 52.9 °F /  11.6 °C 47.5 °F /  8.6 °C 29.98in /  1015.1hPa ESE 2mph /  3.2km/h 10mph /  16.1km/h 81.8% 0.00in /  0mm 0 W/m2
02:39 52.7 °F /  11.5 °C 47.3 °F /  8.5 °C 29.98in /  1015.1hPa ESE 6.3mph /  10.1km/h 11mph /  17.7km/h 82% 0.00in /  0mm 0 W/m2
02:44 52.5 °F /  11.4 °C 47.1 °F /  8.4 °C 29.98in /  1015.1hPa ESE 3.4mph /  5.5km/h 8mph /  12.9km/h 82% 0.00in /  0mm 0 W/m2
02:49 52.4 °F /  11.3 °C 47 °F /  8.3 °C 29.98in /  1015.1hPa SE 3mph /  4.8km/h 10mph /  16.1km/h 82% 0.00in /  0mm 0 W/m2
02:54 52.3 °F /  11.3 °C 46.9 °F /  8.3 °C 29.98in /  1015.1hPa ESE 3.3mph /  5.3km/h 9mph /  14.5km/h 82% 0.00in /  0mm 0 W/m2
02:59 52.2 °F /  11.2 °C 47.1 °F /  8.4 °C 29.98in /  1015.1hPa East 3.9mph /  6.3km/h 13mph /  20.9km/h 83% 0.00in /  0mm 0 W/m2
03:04 52.2 °F /  11.2 °C 47.1 °F /  8.4 °C 29.98in /  1015.1hPa ESE 4.8mph /  7.7km/h 12mph /  19.3km/h 83% 0.00in /  0mm 0 W/m2
03:09 52 °F /  11.1 °C 46.9 °F /  8.3 °C 29.98in /  1015.1hPa East 5.4mph /  8.7km/h 13mph /  20.9km/h 83% 0.00in /  0mm 0 W/m2
03:14 51.9 °F /  11.1 °C 46.9 °F /  8.3 °C 29.98in /  1015.1hPa East 4mph /  6.4km/h 13mph /  20.9km/h 83% 0.00in /  0mm 0 W/m2
03:19 51.8 °F /  11 °C 46.8 °F /  8.2 °C 29.98in /  1015.1hPa East 3.5mph /  5.6km/h 10mph /  16.1km/h 83% 0.00in /  0mm 0 W/m2
03:24 51.6 °F /  10.9 °C 46.8 °F /  8.2 °C 29.98in /  1015.1hPa East 2.5mph /  4km/h 10mph /  16.1km/h 83.8% 0.00in /  0mm 0 W/m2
03:29 51.6 °F /  10.9 °C 46.9 °F /  8.3 °C 29.97in /  1014.8hPa East 2.5mph /  4km/h 10mph /  16.1km/h 84% 0.00in /  0mm 0 W/m2
03:34 51.4 °F /  10.8 °C 46.8 °F /  8.2 °C 29.97in /  1014.8hPa SE 3.7mph /  6km/h 8mph /  12.9km/h 84% 0.00in /  0mm 0 W/m2
03:39 51.4 °F /  10.8 °C 46.8 °F /  8.2 °C 29.97in /  1014.8hPa ESE 4.6mph /  7.4km/h 9mph /  14.5km/h 84% 0.00in /  0mm 0 W/m2
03:44 51.3 °F /  10.7 °C 46.6 °F /  8.1 °C 29.97in /  1014.8hPa East 3.7mph /  6km/h 9mph /  14.5km/h 84% 0.00in /  0mm 0 W/m2
03:49 51.2 °F /  10.7 °C 46.5 °F /  8.1 °C 29.97in /  1014.8hPa SE 4.6mph /  7.4km/h 11mph /  17.7km/h 84% 0.00in /  0mm 0 W/m2
03:54 51.1 °F /  10.6 °C 46.8 °F /  8.2 °C 29.97in /  1014.8hPa ESE 4.4mph /  7.1km/h 11mph /  17.7km/h 85% 0.00in /  0mm 0 W/m2
03:59 51.1 °F /  10.6 °C 46.8 °F /  8.2 °C 29.97in /  1014.8hPa East 2mph /  3.2km/h 8mph /  12.9km/h 85% 0.00in /  0mm 0 W/m2
04:04 51.1 °F /  10.6 °C 46.8 °F /  8.2 °C 29.97in /  1014.8hPa East 1.4mph /  2.3km/h 8mph /  12.9km/h 85% 0.00in /  0mm 0 W/m2
04:09 51.1 °F /  10.6 °C 46.8 °F /  8.2 °C 29.97in /  1014.8hPa ESE 1.6mph /  2.6km/h 5mph /  8km/h 85% 0.00in /  0mm 0 W/m2
04:14 51 °F /  10.6 °C 46.7 °F /  8.2 °C 29.97in /  1014.8hPa NE 1.9mph /  3.1km/h 7mph /  11.3km/h 85% 0.00in /  0mm 0 W/m2
04:19 50.9 °F /  10.5 °C 46.6 °F /  8.1 °C 29.97in /  1014.8hPa ESE 3.7mph /  6km/h 8mph /  12.9km/h 85% 0.00in /  0mm 0 W/m2
04:24 50.9 °F /  10.5 °C 46.6 °F /  8.1 °C 29.97in /  1014.8hPa South 0.9mph /  1.4km/h 7mph /  11.3km/h 85% 0.00in /  0mm 0 W/m2
04:29 50.9 °F /  10.5 °C 46.6 °F /  8.1 °C 29.97in /  1014.8hPa NE 2.4mph /  3.9km/h 7mph /  11.3km/h 85% 0.00in /  0mm 0 W/m2
04:34 50.9 °F /  10.5 °C 46.6 °F /  8.1 °C 29.97in /  1014.8hPa SE 3.8mph /  6.1km/h 9mph /  14.5km/h 85% 0.00in /  0mm 0 W/m2
04:39 50.8 °F /  10.4 °C 46.5 °F /  8.1 °C 29.97in /  1014.8hPa NE 2.9mph /  4.7km/h 9mph /  14.5km/h 85% 0.00in /  0mm 0 W/m2
04:44 50.7 °F /  10.4 °C 46.4 °F /  8 °C 29.98in /  1015.1hPa NE 2.9mph /  4.7km/h 7mph /  11.3km/h 85% 0.00in /  0mm 0 W/m2
04:49 50.7 °F /  10.4 °C 46.4 °F /  8 °C 29.98in /  1015.1hPa East 3.7mph /  6km/h 7mph /  11.3km/h 85% 0.00in /  0mm 0 W/m2
04:54 50.7 °F /  10.4 °C 46.4 °F /  8 °C 29.98in /  1015.1hPa NE 4.3mph /  6.9km/h 9mph /  14.5km/h 85% 0.00in /  0mm 0 W/m2
04:59 50.7 °F /  10.4 °C 46.4 °F /  8 °C 29.97in /  1014.8hPa NE 2mph /  3.2km/h 9mph /  14.5km/h 85% 0.00in /  0mm 5 W/m2
05:04 50.7 °F /  10.4 °C 46.4 °F /  8 °C 29.97in /  1014.8hPa East 2.9mph /  4.7km/h 8mph /  12.9km/h 85% 0.00in /  0mm 7 W/m2
05:09 50.7 °F /  10.4 °C 46.4 °F /  8 °C 29.97in /  1014.8hPa NE 3.8mph /  6.1km/h 10mph /  16.1km/h 85% 0.00in /  0mm 7 W/m2
05:14 50.7 °F /  10.4 °C 46.4 °F /  8 °C 29.97in /  1014.8hPa ENE 2.5mph /  4km/h 6mph /  9.7km/h 85% 0.00in /  0mm 9 W/m2
05:19 50.7 °F /  10.4 °C 46.6 °F /  8.1 °C 29.97in /  1014.8hPa SE 2.4mph /  3.9km/h 5mph /  8km/h 85.4% 0.00in /  0mm 11 W/m2
05:24 50.8 °F /  10.4 °C 46.8 °F /  8.2 °C 29.97in /  1014.8hPa East 4.4mph /  7.1km/h 12mph /  19.3km/h 86% 0.00in /  0mm 14 W/m2
05:29 50.9 °F /  10.5 °C 46.8 °F /  8.2 °C 29.97in /  1014.8hPa East 4.7mph /  7.6km/h 12mph /  19.3km/h 85.8% 0.00in /  0mm 18 W/m2
05:34 50.9 °F /  10.5 °C 46.6 °F /  8.1 °C 29.97in /  1014.8hPa East 5mph /  8km/h 10mph /  16.1km/h 85.2% 0.00in /  0mm 19 W/m2
05:39 50.9 °F /  10.5 °C 46.6 °F /  8.1 °C 29.97in /  1014.8hPa East 3.3mph /  5.3km/h 13mph /  20.9km/h 85% 0.00in /  0mm 21 W/m2
05:44 50.9 °F /  10.5 °C 46.6 °F /  8.1 °C 29.97in /  1014.8hPa ENE 4.2mph /  6.8km/h 15mph /  24.1km/h 85% 0.00in /  0mm 23 W/m2
05:49 51.1 °F /  10.6 °C 46.8 °F /  8.2 °C 29.97in /  1014.8hPa East 3.7mph /  6km/h 14mph /  22.5km/h 85% 0.00in /  0mm 28 W/m2
05:54 51.1 °F /  10.6 °C 46.8 °F /  8.2 °C 29.97in /  1014.8hPa East 4.5mph /  7.2km/h 16mph /  25.7km/h 85% 0.00in /  0mm 30 W/m2
05:59 51.1 °F /  10.6 °C 46.8 °F /  8.2 °C 29.97in /  1014.8hPa East 5.2mph /  8.4km/h 14mph /  22.5km/h 85% 0.00in /  0mm 33 W/m2
06:04 51.2 °F /  10.7 °C 46.9 °F /  8.3 °C 29.98in /  1015.1hPa ENE 5.8mph /  9.3km/h 14mph /  22.5km/h 85% 0.00in /  0mm 35 W/m2
06:09 51.3 °F /  10.7 °C 46.9 °F /  8.3 °C 29.97in /  1014.8hPa East 7.2mph /  11.6km/h 13mph /  20.9km/h 85% 0.00in /  0mm 49 W/m2
06:14 51.3 °F /  10.7 °C 46.9 °F /  8.3 °C 29.97in /  1014.8hPa ENE 6.4mph /  10.3km/h 14mph /  22.5km/h 85% 0.00in /  0mm 47 W/m2
06:19 51.4 °F /  10.8 °C 47.1 °F /  8.4 °C 29.97in /  1014.8hPa East 2.9mph /  4.7km/h 9mph /  14.5km/h 85% 0.00in /  0mm 51 W/m2
06:24 51.4 °F /  10.8 °C 47.1 °F /  8.4 °C 29.97in /  1014.8hPa East 5.8mph /  9.3km/h 12mph /  19.3km/h 85% 0.00in /  0mm 53 W/m2
06:29 51.4 °F /  10.8 °C 47.1 °F /  8.4 °C 29.97in /  1014.8hPa East 6.6mph /  10.6km/h 10mph /  16.1km/h 85% 0.00in /  0mm 62 W/m2
06:34 51.6 °F /  10.9 °C 47.3 °F /  8.5 °C 29.97in /  1014.8hPa ENE 6.2mph /  10km/h 15mph /  24.1km/h 85% 0.00in /  0mm 65 W/m2
06:39 51.6 °F /  10.9 °C 47.3 °F /  8.5 °C 29.98in /  1015.1hPa ENE 5mph /  8km/h 12mph /  19.3km/h 85% 0.00in /  0mm 63 W/m2
06:44 51.8 °F /  11 °C 47.5 °F /  8.6 °C 29.98in /  1015.1hPa East 8mph /  12.9km/h 13mph /  20.9km/h 85% 0.00in /  0mm 62 W/m2
06:49 51.9 °F /  11.1 °C 47.6 °F /  8.7 °C 29.98in /  1015.1hPa ENE 7.5mph /  12.1km/h 14mph /  22.5km/h 85% 0.00in /  0mm 63 W/m2
06:54 52 °F /  11.1 °C 47.7 °F /  8.7 °C 29.97in /  1014.8hPa East 4.1mph /  6.6km/h 11mph /  17.7km/h 85% 0.00in /  0mm 62 W/m2
06:59 52.1 °F /  11.2 °C 47.7 °F /  8.7 °C 29.97in /  1014.8hPa ENE 6.4mph /  10.3km/h 11mph /  17.7km/h 85% 0.00in /  0mm 72 W/m2
07:04 52.2 °F /  11.2 °C 47.8 °F /  8.8 °C 29.97in /  1014.8hPa ESE 4.7mph /  7.6km/h 13mph /  20.9km/h 85% 0.00in /  0mm 91 W/m2
07:09 52.2 °F /  11.2 °C 47.8 °F /  8.8 °C 29.97in /  1014.8hPa NE 6mph /  9.7km/h 12mph /  19.3km/h 84.8% 0.00in /  0mm 104 W/m2
07:14 52.6 °F /  11.4 °C 48.1 °F /  8.9 °C 29.97in /  1014.8hPa ENE 4.9mph /  7.9km/h 10mph /  16.1km/h 84.4% 0.00in /  0mm 137 W/m2
07:19 52.9 °F /  11.6 °C 48.3 °F /  9.1 °C 29.97in /  1014.8hPa East 3.6mph /  5.8km/h 14mph /  22.5km/h 84.2% 0.00in /  0mm 148 W/m2
07:24 53.2 °F /  11.8 °C 48.6 °F /  9.2 °C 29.97in /  1014.8hPa ENE 5.5mph /  8.9km/h 12mph /  19.3km/h 84% 0.00in /  0mm 123 W/m2
07:29 53.4 °F /  11.9 °C 48.7 °F /  9.3 °C 29.97in /  1014.8hPa ENE 5.3mph /  8.5km/h 15mph /  24.1km/h 84% 0.00in /  0mm 172 W/m2
07:34 53.6 °F /  12 °C 48.6 °F /  9.2 °C 29.97in /  1014.8hPa ENE 6.6mph /  10.6km/h 16mph /  25.7km/h 83.2% 0.00in /  0mm 209 W/m2
07:39 53.8 °F /  12.1 °C 48.7 °F /  9.3 °C 29.97in /  1014.8hPa East 7.4mph /  11.9km/h 14mph /  22.5km/h 83% 0.00in /  0mm 200 W/m2
07:44 54 °F /  12.2 °C 48.9 °F /  9.4 °C 29.97in /  1014.8hPa East 6.4mph /  10.3km/h 14mph /  22.5km/h 83% 0.00in /  0mm 156 W/m2
07:49 54 °F /  12.2 °C 48.6 °F /  9.2 °C 29.97in /  1014.8hPa ENE 6.6mph /  10.6km/h 14mph /  22.5km/h 82% 0.00in /  0mm 153 W/m2
07:54 54.1 °F /  12.3 °C 48.7 °F /  9.3 °C 29.97in /  1014.8hPa ENE 7.2mph /  11.6km/h 15mph /  24.1km/h 82% 0.00in /  0mm 172 W/m2
07:59 54.1 °F /  12.3 °C 48.7 °F /  9.3 °C 29.97in /  1014.8hPa ENE 7mph /  11.3km/h 15mph /  24.1km/h 82% 0.00in /  0mm 174 W/m2
08:04 54.3 °F /  12.4 °C 48.9 °F /  9.4 °C 29.97in /  1014.8hPa NE 7.4mph /  11.9km/h 11mph /  17.7km/h 82% 0.00in /  0mm 186 W/m2
08:09 54.3 °F /  12.4 °C 48.9 °F /  9.4 °C 29.97in /  1014.8hPa ENE 6.2mph /  10km/h 18mph /  29km/h 82% 0.00in /  0mm 178 W/m2
08:14 54.7 °F /  12.6 °C 48.9 °F /  9.4 °C 29.97in /  1014.8hPa NE 7mph /  11.3km/h 15mph /  24.1km/h 81.2% 0.00in /  0mm 197 W/m2
08:19 54.8 °F /  12.7 °C 49 °F /  9.4 °C 29.96in /  1014.4hPa ENE 3.5mph /  5.6km/h 16mph /  25.7km/h 81% 0.00in /  0mm 216 W/m2
08:24 55 °F /  12.8 °C 49.3 °F /  9.6 °C 29.97in /  1014.8hPa ENE 8.6mph /  13.8km/h 18mph /  29km/h 81% 0.00in /  0mm 163 W/m2
08:29 55 °F /  12.8 °C 49.3 °F /  9.6 °C 29.97in /  1014.8hPa NE 9.4mph /  15.1km/h 17mph /  27.4km/h 81% 0.00in /  0mm 162 W/m2
08:34 55 °F /  12.8 °C 49.1 °F /  9.5 °C 29.97in /  1014.8hPa ENE 6.8mph /  10.9km/h 17mph /  27.4km/h 80.4% 0.00in /  0mm 169 W/m2
08:39 55.1 °F /  12.8 °C 49 °F /  9.4 °C 29.97in /  1014.8hPa NE 8.6mph /  13.8km/h 17mph /  27.4km/h 80% 0.00in /  0mm 160 W/m2
08:44 55.4 °F /  13 °C 49.3 °F /  9.6 °C 29.96in /  1014.4hPa East 6.4mph /  10.3km/h 17mph /  27.4km/h 80% 0.00in /  0mm 188 W/m2
08:49 55.8 °F /  13.2 °C 49.7 °F /  9.8 °C 29.96in /  1014.4hPa East 8.2mph /  13.2km/h 15mph /  24.1km/h 80% 0.00in /  0mm 401 W/m2
08:54 56.4 °F /  13.6 °C 50.3 °F /  10.2 °C 29.96in /  1014.4hPa East 7.1mph /  11.4km/h 15mph /  24.1km/h 80% 0.00in /  0mm 448 W/m2
08:59 57.4 °F /  14.1 °C 51 °F /  10.6 °C 29.96in /  1014.4hPa East 3.4mph /  5.5km/h 11mph /  17.7km/h 79.4% 0.00in /  0mm 476 W/m2
09:04 57.9 °F /  14.4 °C 51.2 °F /  10.7 °C 29.96in /  1014.4hPa NE 7.7mph /  12.4km/h 12mph /  19.3km/h 78.4% 0.00in /  0mm 469 W/m2
09:09 58.4 °F /  14.7 °C 51.2 °F /  10.7 °C 29.97in /  1014.8hPa ENE 9mph /  14.5km/h 16mph /  25.7km/h 77% 0.00in /  0mm 492 W/m2
09:14 58.8 °F /  14.9 °C 51.2 °F /  10.7 °C 29.96in /  1014.4hPa East 6.3mph /  10.1km/h 16mph /  25.7km/h 76% 0.00in /  0mm 503 W/m2
09:19 59.3 °F /  15.2 °C 51.6 °F /  10.9 °C 29.96in /  1014.4hPa East 4.2mph /  6.8km/h 13mph /  20.9km/h 75.6% 0.00in /  0mm 519 W/m2
09:24 59.7 °F /  15.4 °C 51.8 °F /  11 °C 29.96in /  1014.4hPa NE 5.2mph /  8.4km/h 11mph /  17.7km/h 74.8% 0.00in /  0mm 534 W/m2
09:29 60.3 °F /  15.7 °C 52 °F /  11.1 °C 29.96in /  1014.4hPa ENE 4.2mph /  6.8km/h 10mph /  16.1km/h 74% 0.00in /  0mm 543 W/m2
09:34 60.8 °F /  16 °C 52.3 °F /  11.3 °C 29.96in /  1014.4hPa NNE 4.9mph /  7.9km/h 10mph /  16.1km/h 73.2% 0.00in /  0mm 561 W/m2
09:39 61 °F /  16.1 °C 52.2 °F /  11.2 °C 29.96in /  1014.4hPa NE 5.4mph /  8.7km/h 12mph /  19.3km/h 72.8% 0.00in /  0mm 570 W/m2
09:44 61.3 °F /  16.3 °C 52.1 °F /  11.2 °C 29.96in /  1014.4hPa NNE 6mph /  9.7km/h 10mph /  16.1km/h 72% 0.00in /  0mm 589 W/m2
09:49 61.7 °F /  16.5 °C 52.5 °F /  11.4 °C 29.96in /  1014.4hPa NE 4mph /  6.4km/h 16mph /  25.7km/h 71.8% 0.00in /  0mm 622 W/m2
09:54 61.8 °F /  16.6 °C 52.3 °F /  11.3 °C 29.96in /  1014.4hPa NE 4.1mph /  6.6km/h 16mph /  25.7km/h 71.2% 0.00in /  0mm 622 W/m2
09:59 61.9 °F /  16.6 °C 52.6 °F /  11.4 °C 29.96in /  1014.4hPa NE 4.1mph /  6.6km/h 9mph /  14.5km/h 71.8% 0.00in /  0mm 654 W/m2
10:04 62.3 °F /  16.8 °C 53 °F /  11.7 °C 29.96in /  1014.4hPa NE 5.2mph /  8.4km/h 12mph /  19.3km/h 71.6% 0.00in /  0mm 668 W/m2
10:09 62.9 °F /  17.2 °C 53.3 °F /  11.8 °C 29.96in /  1014.4hPa NE 5.8mph /  9.3km/h 14mph /  22.5km/h 71% 0.00in /  0mm 693 W/m2
10:14 63.7 °F /  17.6 °C 54 °F /  12.2 °C 29.96in /  1014.4hPa ENE 4.2mph /  6.8km/h 14mph /  22.5km/h 70.6% 0.00in /  0mm 729 W/m2
10:19 64.6 °F /  18.1 °C 54.3 °F /  12.4 °C 29.96in /  1014.4hPa East 5.2mph /  8.4km/h 13mph /  20.9km/h 69.6% 0.00in /  0mm 728 W/m2
10:24 64.8 °F /  18.2 °C 54.3 °F /  12.4 °C 29.95in /  1014.1hPa NE 5.9mph /  9.5km/h 13mph /  20.9km/h 68.8% 0.00in /  0mm 330 W/m2
10:29 64.6 °F /  18.1 °C 54.1 °F /  12.3 °C 29.95in /  1014.1hPa SE 4.4mph /  7.1km/h 10mph /  16.1km/h 68.8% 0.00in /  0mm 708 W/m2
10:34 64.5 °F /  18.1 °C 54 °F /  12.2 °C 29.95in /  1014.1hPa ENE 2.8mph /  4.5km/h 8mph /  12.9km/h 68.8% 0.00in /  0mm 642 W/m2
10:39 65 °F /  18.3 °C 54.3 °F /  12.4 °C 29.95in /  1014.1hPa ENE 3.3mph /  5.3km/h 14mph /  22.5km/h 68.2% 0.00in /  0mm 475 W/m2
10:44 64.9 °F /  18.3 °C 54.1 °F /  12.3 °C 29.95in /  1014.1hPa NE 2.1mph /  3.4km/h 8mph /  12.9km/h 68% 0.00in /  0mm 603 W/m2
10:49 65.1 °F /  18.4 °C 54.3 °F /  12.4 °C 29.94in /  1013.8hPa East 4.7mph /  7.6km/h 10mph /  16.1km/h 68% 0.00in /  0mm 696 W/m2
10:54 65 °F /  18.3 °C 54.2 °F /  12.3 °C 29.94in /  1013.8hPa East 3.9mph /  6.3km/h 10mph /  16.1km/h 67.8% 0.00in /  0mm 759 W/m2
10:59 65.7 °F /  18.7 °C 55.1 °F /  12.8 °C 29.94in /  1013.8hPa NE 4.7mph /  7.6km/h 11mph /  17.7km/h 68.8% 0.00in /  0mm 867 W/m2
11:04 66.4 °F /  19.1 °C 55.5 °F /  13.1 °C 29.94in /  1013.8hPa NE 8.6mph /  13.8km/h 13mph /  20.9km/h 68% 0.00in /  0mm 860 W/m2
11:09 67.5 °F /  19.7 °C 56.2 °F /  13.4 °C 29.94in /  1013.8hPa ENE 7.4mph /  11.9km/h 12mph /  19.3km/h 67.2% 0.00in /  0mm 809 W/m2
11:14 68.1 °F /  20.1 °C 56.3 °F /  13.5 °C 29.94in /  1013.8hPa ENE 4.7mph /  7.6km/h 10mph /  16.1km/h 66% 0.00in /  0mm 777 W/m2
11:19 68.5 °F /  20.3 °C 56.3 °F /  13.5 °C 29.93in /  1013.4hPa East 3.4mph /  5.5km/h 13mph /  20.9km/h 65.3% 0.00in /  0mm 763 W/m2
11:24 68.9 °F /  20.5 °C 56.5 °F /  13.6 °C 29.93in /  1013.4hPa NE 8.1mph /  13km/h 15mph /  24.1km/h 64.4% 0.00in /  0mm 765 W/m2
11:29 68.7 °F /  20.4 °C 56.4 °F /  13.6 °C 29.93in /  1013.4hPa North 1.7mph /  2.7km/h 15mph /  24.1km/h 64.8% 0.00in /  0mm 789 W/m2
11:34 69.2 °F /  20.7 °C 56.9 °F /  13.8 °C 29.93in /  1013.4hPa East 5.6mph /  9km/h 13mph /  20.9km/h 65% 0.00in /  0mm 812 W/m2
11:39 69.4 °F /  20.8 °C 56.6 °F /  13.7 °C 29.93in /  1013.4hPa NE 9.2mph /  14.8km/h 15mph /  24.1km/h 64% 0.00in /  0mm 802 W/m2
11:44 69.8 °F /  21 °C 56.8 °F /  13.8 °C 29.93in /  1013.4hPa East 7.6mph /  12.2km/h 17mph /  27.4km/h 63.4% 0.00in /  0mm 796 W/m2
11:49 70 °F /  21.1 °C 57.1 °F /  13.9 °C 29.93in /  1013.4hPa East 5.8mph /  9.3km/h 14mph /  22.5km/h 63.6% 0.00in /  0mm 823 W/m2
11:54 70.2 °F /  21.2 °C 57.2 °F /  14 °C 29.93in /  1013.4hPa NNE 6.6mph /  10.6km/h 14mph /  22.5km/h 63.4% 0.00in /  0mm 816 W/m2
11:59 70.5 °F /  21.4 °C 57.7 °F /  14.3 °C 29.93in /  1013.4hPa NNE 5mph /  8km/h 11mph /  17.7km/h 63.8% 0.00in /  0mm 812 W/m2
12:04 71.1 °F /  21.7 °C 58.9 °F /  14.9 °C 29.93in /  1013.4hPa NNE 6mph /  9.7km/h 20mph /  32.2km/h 65.4% 0.00in /  0mm 814 W/m2
12:09 71.1 °F /  21.7 °C 58.6 °F /  14.8 °C 29.93in /  1013.4hPa NE 6.6mph /  10.6km/h 20mph /  32.2km/h 65% 0.00in /  0mm 819 W/m2
12:14 71.3 °F /  21.8 °C 58.9 °F /  14.9 °C 29.92in /  1013.1hPa NE 5.4mph /  8.7km/h 14mph /  22.5km/h 65% 0.00in /  0mm 826 W/m2
12:19 71.8 °F /  22.1 °C 59.4 °F /  15.2 °C 29.92in /  1013.1hPa NE 6.6mph /  10.6km/h 15mph /  24.1km/h 65% 0.00in /  0mm 837 W/m2
12:24 71.9 °F /  22.2 °C 59.5 °F /  15.3 °C 29.92in /  1013.1hPa NE 6.2mph /  10km/h 14mph /  22.5km/h 65% 0.00in /  0mm 853 W/m2
12:29 72.5 °F /  22.5 °C 59.7 °F /  15.4 °C 29.92in /  1013.1hPa NNE 4.4mph /  7.1km/h 18mph /  29km/h 64.4% 0.00in /  0mm 856 W/m2
12:34 72.8 °F /  22.7 °C 59.8 °F /  15.4 °C 29.92in /  1013.1hPa NE 9.6mph /  15.4km/h 15mph /  24.1km/h 64% 0.00in /  0mm 830 W/m2
12:39 72.9 °F /  22.7 °C 59.9 °F /  15.5 °C 29.92in /  1013.1hPa ENE 5.4mph /  8.7km/h 17mph /  27.4km/h 64% 0.00in /  0mm 833 W/m2
12:44 73.2 °F /  22.9 °C 60.2 °F /  15.7 °C 29.91in /  1012.8hPa East 6mph /  9.7km/h 18mph /  29km/h 63.6% 0.00in /  0mm 828 W/m2
12:49 72.9 °F /  22.7 °C 60.1 °F /  15.6 °C 29.91in /  1012.8hPa East 5.2mph /  8.4km/h 13mph /  20.9km/h 64.2% 0.00in /  0mm 847 W/m2
12:54 72.9 °F /  22.7 °C 59.9 °F /  15.5 °C 29.91in /  1012.8hPa NE 5.9mph /  9.5km/h 10mph /  16.1km/h 64% 0.00in /  0mm 840 W/m2
12:59 73.4 °F /  23 °C 60.4 °F /  15.8 °C 29.91in /  1012.8hPa NE 5.4mph /  8.7km/h 14mph /  22.5km/h 64% 0.00in /  0mm 851 W/m2
13:04 74.1 °F /  23.4 °C 60.6 °F /  15.9 °C 29.91in /  1012.8hPa ENE 7.2mph /  11.6km/h 18mph /  29km/h 62.8% 0.00in /  0mm 854 W/m2
13:09 74.3 °F /  23.5 °C 60.7 °F /  15.9 °C 29.91in /  1012.8hPa NE 7.1mph /  11.4km/h 18mph /  29km/h 62.8% 0.00in /  0mm 858 W/m2
13:14 74.5 °F /  23.6 °C 60.7 °F /  15.9 °C 29.91in /  1012.8hPa ESE 9.2mph /  14.8km/h 13mph /  20.9km/h 62.2% 0.00in /  0mm 858 W/m2
13:19 74.6 °F /  23.7 °C 60.8 °F /  16 °C 29.91in /  1012.8hPa ENE 10mph /  16.1km/h 18mph /  29km/h 62% 0.00in /  0mm 851 W/m2
13:24 74.8 °F /  23.8 °C 60.9 °F /  16.1 °C 29.91in /  1012.8hPa East 6.3mph /  10.1km/h 18mph /  29km/h 62% 0.00in /  0mm 830 W/m2
13:29 74.8 °F /  23.8 °C 61 °F /  16.1 °C 29.91in /  1012.8hPa NE 7mph /  11.3km/h 16mph /  25.7km/h 62% 0.00in /  0mm 835 W/m2
13:34 75.4 °F /  24.1 °C 61 °F /  16.1 °C 29.90in /  1012.4hPa NE 6mph /  9.7km/h 16mph /  25.7km/h 61% 0.00in /  0mm 849 W/m2
13:39 75.6 °F /  24.2 °C 61.2 °F /  16.2 °C 29.90in /  1012.4hPa NE 6.8mph /  10.9km/h 16mph /  25.7km/h 61% 0.00in /  0mm 851 W/m2
13:44 76 °F /  24.4 °C 61.5 °F /  16.4 °C 29.90in /  1012.4hPa ENE 8.8mph /  14.2km/h 18mph /  29km/h 60.8% 0.00in /  0mm 847 W/m2
13:49 76.2 °F /  24.6 °C 61.6 °F /  16.4 °C 29.90in /  1012.4hPa NNE 7.2mph /  11.6km/h 18mph /  29km/h 60.6% 0.00in /  0mm 784 W/m2
13:54 76.1 °F /  24.5 °C 61.7 °F /  16.5 °C 29.90in /  1012.4hPa NE 6.7mph /  10.8km/h 17mph /  27.4km/h 61% 0.00in /  0mm 863 W/m2
13:59 76.1 °F /  24.5 °C 61.7 °F /  16.5 °C 29.90in /  1012.4hPa ESE 6mph /  9.7km/h 14mph /  22.5km/h 61% 0.00in /  0mm 838 W/m2
14:04 76.6 °F /  24.8 °C 62 °F /  16.7 °C 29.90in /  1012.4hPa East 5mph /  8km/h 14mph /  22.5km/h 60.8% 0.00in /  0mm 879 W/m2
14:09 76.4 °F /  24.7 °C 61.6 °F /  16.4 °C 29.90in /  1012.4hPa ESE 4.5mph /  7.2km/h 11mph /  17.7km/h 60.4% 0.00in /  0mm 872 W/m2
14:14 76.5 °F /  24.7 °C 62.2 °F /  16.8 °C 29.90in /  1012.4hPa NE 3.3mph /  5.3km/h 13mph /  20.9km/h 61.2% 0.00in /  0mm 872 W/m2
14:19 77 °F /  25 °C 62 °F /  16.7 °C 29.90in /  1012.4hPa ENE 4.8mph /  7.7km/h 16mph /  25.7km/h 60% 0.00in /  0mm 863 W/m2
14:24 77.1 °F /  25.1 °C 62.3 °F /  16.8 °C 29.90in /  1012.4hPa ENE 6.2mph /  10km/h 14mph /  22.5km/h 60.4% 0.00in /  0mm 851 W/m2
14:29 77.5 °F /  25.3 °C 62.3 °F /  16.8 °C 29.90in /  1012.4hPa ENE 6.4mph /  10.3km/h 18mph /  29km/h 59.5% 0.00in /  0mm 810 W/m2
14:34 77.9 °F /  25.5 °C 62.7 °F /  17.1 °C 29.90in /  1012.4hPa NE 8.2mph /  13.2km/h 15mph /  24.1km/h 59.4% 0.00in /  0mm 824 W/m2
14:39 78.2 °F /  25.7 °C 62.6 °F /  17 °C 29.89in /  1012.1hPa ENE 9.4mph /  15.1km/h 16mph /  25.7km/h 58.8% 0.00in /  0mm 789 W/m2
14:44 78.1 °F /  25.6 °C 62.6 °F /  17 °C 29.89in /  1012.1hPa East 7.8mph /  12.6km/h 17mph /  27.4km/h 59% 0.00in /  0mm 810 W/m2
14:49 78.5 °F /  25.8 °C 63.1 °F /  17.3 °C 29.89in /  1012.1hPa NE 6.6mph /  10.6km/h 16mph /  25.7km/h 59% 0.00in /  0mm 819 W/m2
14:54 79 °F /  26.1 °C 63 °F /  17.2 °C 29.89in /  1012.1hPa ENE 7.8mph /  12.6km/h 18mph /  29km/h 58% 0.00in /  0mm 817 W/m2
14:59 79.1 °F /  26.2 °C 63.2 °F /  17.3 °C 29.89in /  1012.1hPa ENE 7.8mph /  12.6km/h 19mph /  30.6km/h 58.2% 0.00in /  0mm 803 W/m2
15:04 79 °F /  26.1 °C 63 °F /  17.2 °C 29.88in /  1011.7hPa ESE 6.2mph /  10km/h 16mph /  25.7km/h 58% 0.00in /  0mm 795 W/m2
15:09 79.2 °F /  26.2 °C 63.3 °F /  17.4 °C 29.88in /  1011.7hPa East 7mph /  11.3km/h 16mph /  25.7km/h 58.2% 0.00in /  0mm 788 W/m2
15:14 79.9 °F /  26.6 °C 63.6 °F /  17.6 °C 29.88in /  1011.7hPa ENE 5.8mph /  9.3km/h 14mph /  22.5km/h 57.6% 0.00in /  0mm 766 W/m2
15:19 80.2 °F /  26.8 °C 63.7 °F /  17.6 °C 29.88in /  1011.7hPa ENE 5.1mph /  8.2km/h 11mph /  17.7km/h 57.2% 0.00in /  0mm 765 W/m2
15:24 80.8 °F /  27.1 °C 64 °F /  17.8 °C 29.88in /  1011.7hPa NE 6.6mph /  10.6km/h 16mph /  25.7km/h 57% 0.00in /  0mm 773 W/m2
15:29 81.1 °F /  27.3 °C 64 °F /  17.8 °C 29.88in /  1011.7hPa ENE 7.8mph /  12.6km/h 19mph /  30.6km/h 56% 0.00in /  0mm 773 W/m2
15:34 80.6 °F /  27 °C 63.9 °F /  17.7 °C 29.88in /  1011.7hPa NE 4.1mph /  6.6km/h 16mph /  25.7km/h 56.6% 0.00in /  0mm 722 W/m2
15:39 80.8 °F /  27.1 °C 64 °F /  17.8 °C 29.88in /  1011.7hPa East 4.2mph /  6.8km/h 13mph /  20.9km/h 57% 0.00in /  0mm 707 W/m2
15:44 81 °F /  27.2 °C 64 °F /  17.8 °C 29.87in /  1011.4hPa ENE 9.6mph /  15.4km/h 18mph /  29km/h 56.2% 0.00in /  0mm 701 W/m2
15:49 80.6 °F /  27 °C 63.8 °F /  17.7 °C 29.87in /  1011.4hPa East 6.9mph /  11.1km/h 18mph /  29km/h 56.6% 0.00in /  0mm 700 W/m2
15:54 80.6 °F /  27 °C 63.9 °F /  17.7 °C 29.87in /  1011.4hPa ENE 8.6mph /  13.8km/h 14mph /  22.5km/h 56.8% 0.00in /  0mm 689 W/m2
15:59 81 °F /  27.2 °C 64 °F /  17.8 °C 29.87in /  1011.4hPa East 7.2mph /  11.6km/h 17mph /  27.4km/h 56.4% 0.00in /  0mm 694 W/m2
16:04 81 °F /  27.2 °C 64.1 °F /  17.8 °C 29.87in /  1011.4hPa ENE 7.3mph /  11.7km/h 16mph /  25.7km/h 56.4% 0.00in /  0mm 673 W/m2
16:09 81.1 °F /  27.3 °C 64.1 °F /  17.8 °C 29.87in /  1011.4hPa NE 9mph /  14.5km/h 17mph /  27.4km/h 56.2% 0.00in /  0mm 661 W/m2
16:14 81.4 °F /  27.4 °C 64.2 °F /  17.9 °C 29.87in /  1011.4hPa ENE 5.7mph /  9.2km/h 14mph /  22.5km/h 56.2% 0.00in /  0mm 666 W/m2
16:19 81.4 °F /  27.4 °C 64.1 °F /  17.8 °C 29.86in /  1011.1hPa ESE 6.2mph /  10km/h 16mph /  25.7km/h 56% 0.00in /  0mm 533 W/m2
16:24 81 °F /  27.2 °C 64.2 °F /  17.9 °C 29.86in /  1011.1hPa East 4.1mph /  6.6km/h 16mph /  25.7km/h 57% 0.00in /  0mm 517 W/m2
16:29 80.8 °F /  27.1 °C 64.2 °F /  17.9 °C 29.86in /  1011.1hPa East 6.8mph /  10.9km/h 15mph /  24.1km/h 57.2% 0.00in /  0mm 670 W/m2
16:34 81 °F /  27.2 °C 64.3 °F /  17.9 °C 29.86in /  1011.1hPa NE 6.2mph /  10km/h 14mph /  22.5km/h 57.2% 0.00in /  0mm 631 W/m2
16:39 81.3 °F /  27.4 °C 64.5 °F /  18.1 °C 29.86in /  1011.1hPa ENE 7.1mph /  11.4km/h 15mph /  24.1km/h 56.8% 0.00in /  0mm 603 W/m2
16:44 81.8 °F /  27.7 °C 64.5 °F /  18.1 °C 29.86in /  1011.1hPa East 5.6mph /  9km/h 16mph /  25.7km/h 56% 0.00in /  0mm 610 W/m2
16:49 81.9 °F /  27.7 °C 64.6 °F /  18.1 °C 29.86in /  1011.1hPa East 6.6mph /  10.6km/h 13mph /  20.9km/h 56% 0.00in /  0mm 599 W/m2
16:54 82.1 °F /  27.8 °C 64.4 °F /  18 °C 29.86in /  1011.1hPa East 7.4mph /  11.9km/h 15mph /  24.1km/h 55.2% 0.00in /  0mm 601 W/m2
16:59 82.1 °F /  27.8 °C 64.6 °F /  18.1 °C 29.86in /  1011.1hPa ENE 5.2mph /  8.4km/h 13mph /  20.9km/h 55.6% 0.00in /  0mm 599 W/m2
17:04 82.4 °F /  28 °C 64.6 °F /  18.1 °C 29.86in /  1011.1hPa ENE 5.1mph /  8.2km/h 13mph /  20.9km/h 55% 0.00in /  0mm 596 W/m2
17:09 82.4 °F /  28 °C 64.7 °F /  18.2 °C 29.86in /  1011.1hPa NE 5.2mph /  8.4km/h 12mph /  19.3km/h 55.2% 0.00in /  0mm 577 W/m2
17:14 82 °F /  27.8 °C 64.7 °F /  18.2 °C 29.86in /  1011.1hPa NE 6.7mph /  10.8km/h 15mph /  24.1km/h 56% 0.00in /  0mm 568 W/m2
17:19 81.7 °F /  27.6 °C 64.7 °F /  18.2 °C 29.86in /  1011.1hPa NE 3.7mph /  6km/h 13mph /  20.9km/h 56.6% 0.00in /  0mm 536 W/m2
17:24 81.9 °F /  27.7 °C 64.6 °F /  18.1 °C 29.86in /  1011.1hPa ENE 8.2mph /  13.2km/h 16mph /  25.7km/h 56% 0.00in /  0mm 533 W/m2
17:29 81.7 °F /  27.6 °C 64.4 °F /  18 °C 29.86in /  1011.1hPa East 7.2mph /  11.6km/h 14mph /  22.5km/h 56% 0.00in /  0mm 526 W/m2
17:34 81.9 °F /  27.7 °C 64.7 °F /  18.2 °C 29.86in /  1011.1hPa ENE 6mph /  9.7km/h 11mph /  17.7km/h 56% 0.00in /  0mm 522 W/m2
17:39 82.2 °F /  27.9 °C 64.9 °F /  18.3 °C 29.86in /  1011.1hPa ENE 7mph /  11.3km/h 13mph /  20.9km/h 55.8% 0.00in /  0mm 485 W/m2
17:44 82.2 °F /  27.9 °C 64.4 °F /  18 °C 29.86in /  1011.1hPa ENE 4.1mph /  6.6km/h 15mph /  24.1km/h 55% 0.00in /  0mm 480 W/m2
17:49 82 °F /  27.8 °C 63.9 °F /  17.7 °C 29.86in /  1011.1hPa ENE 5.5mph /  8.9km/h 16mph /  25.7km/h 54.6% 0.00in /  0mm 464 W/m2
17:54 81.7 °F /  27.6 °C 63.7 °F /  17.6 °C 29.86in /  1011.1hPa ENE 5.6mph /  9km/h 17mph /  27.4km/h 54.6% 0.00in /  0mm 445 W/m2
17:59 81.1 °F /  27.3 °C 63.1 °F /  17.3 °C 29.86in /  1011.1hPa ESE 5.8mph /  9.3km/h 13mph /  20.9km/h 54.4% 0.00in /  0mm 434 W/m2
18:04 81.2 °F /  27.3 °C 63.2 °F /  17.3 °C 29.86in /  1011.1hPa East 9.2mph /  14.8km/h 15mph /  24.1km/h 54.2% 0.00in /  0mm 422 W/m2
18:09 81.2 °F /  27.3 °C 63 °F /  17.2 °C 29.86in /  1011.1hPa ESE 5.4mph /  8.7km/h 22mph /  35.4km/h 54% 0.00in /  0mm 415 W/m2
18:14 80.7 °F /  27.1 °C 62.7 °F /  17.1 °C 29.86in /  1011.1hPa East 6.2mph /  10km/h 15mph /  24.1km/h 54.4% 0.00in /  0mm 411 W/m2
18:19 81 °F /  27.2 °C 63.1 °F /  17.3 °C 29.86in /  1011.1hPa East 6.4mph /  10.3km/h 17mph /  27.4km/h 54.6% 0.00in /  0mm 394 W/m2
18:24 81.2 °F /  27.3 °C 63.1 °F /  17.3 °C 29.86in /  1011.1hPa East 3.7mph /  6km/h 13mph /  20.9km/h 54% 0.00in /  0mm 373 W/m2
18:29 81.5 °F /  27.5 °C 63.3 °F /  17.4 °C 29.86in /  1011.1hPa ESE 6mph /  9.7km/h 15mph /  24.1km/h 54% 0.00in /  0mm 348 W/m2
18:34 81.4 °F /  27.4 °C 63 °F /  17.2 °C 29.86in /  1011.1hPa East 6.4mph /  10.3km/h 15mph /  24.1km/h 53.6% 0.00in /  0mm 338 W/m2
18:39 81.7 °F /  27.6 °C 63.1 °F /  17.3 °C 29.86in /  1011.1hPa East 10.4mph /  16.7km/h 15mph /  24.1km/h 53.2% 0.00in /  0mm 308 W/m2
18:44 81.5 °F /  27.5 °C 62.8 °F /  17.1 °C 29.86in /  1011.1hPa ENE 7.5mph /  12.1km/h 15mph /  24.1km/h 53% 0.00in /  0mm 302 W/m2
18:49 81.2 °F /  27.3 °C 63 °F /  17.2 °C 29.86in /  1011.1hPa ESE 7.4mph /  11.9km/h 14mph /  22.5km/h 54% 0.00in /  0mm 295 W/m2
18:54 81 °F /  27.2 °C 62.8 °F /  17.1 °C 29.86in /  1011.1hPa East 6.2mph /  10km/h 13mph /  20.9km/h 54% 0.00in /  0mm 287 W/m2
18:59 81 °F /  27.2 °C 62.8 °F /  17.1 °C 29.86in /  1011.1hPa NNE 3.6mph /  5.8km/h 13mph /  20.9km/h 54% 0.00in /  0mm 271 W/m2
19:04 81 °F /  27.2 °C 63.3 °F /  17.4 °C 29.86in /  1011.1hPa NE 2.2mph /  3.5km/h 11mph /  17.7km/h 55% 0.00in /  0mm 257 W/m2
19:09 80.8 °F /  27.1 °C 63.1 °F /  17.3 °C 29.86in /  1011.1hPa ENE 4.8mph /  7.7km/h 15mph /  24.1km/h 55% 0.00in /  0mm 243 W/m2
19:14 80.3 °F /  26.8 °C 62.7 °F /  17.1 °C 29.86in /  1011.1hPa ENE 4.6mph /  7.4km/h 16mph /  25.7km/h 55% 0.00in /  0mm 214 W/m2
19:19 80.3 °F /  26.8 °C 62.7 °F /  17.1 °C 29.86in /  1011.1hPa East 5.8mph /  9.3km/h 15mph /  24.1km/h 55% 0.00in /  0mm 213 W/m2
19:24 80.2 °F /  26.8 °C 62.6 °F /  17 °C 29.86in /  1011.1hPa ENE 6.7mph /  10.8km/h 13mph /  20.9km/h 55% 0.00in /  0mm 207 W/m2
19:29 80 °F /  26.7 °C 62.6 °F /  17 °C 29.86in /  1011.1hPa ENE 7.2mph /  11.6km/h 15mph /  24.1km/h 55.4% 0.00in /  0mm 193 W/m2
19:34 79.6 °F /  26.4 °C 62.5 °F /  16.9 °C 29.86in /  1011.1hPa East 5mph /  8km/h 15mph /  24.1km/h 56% 0.00in /  0mm 186 W/m2
19:39 79.4 °F /  26.3 °C 62.5 °F /  16.9 °C 29.87in /  1011.4hPa ENE 5.2mph /  8.4km/h 13mph /  20.9km/h 56.4% 0.00in /  0mm 169 W/m2
19:44 79.2 °F /  26.2 °C 62.6 °F /  17 °C 29.87in /  1011.4hPa NE 3.6mph /  5.8km/h 10mph /  16.1km/h 57% 0.00in /  0mm 144 W/m2
19:49 79.3 °F /  26.3 °C 62.8 °F /  17.1 °C 29.87in /  1011.4hPa ENE 4.6mph /  7.4km/h 13mph /  20.9km/h 57% 0.00in /  0mm 139 W/m2
19:54 79.1 °F /  26.2 °C 62.6 °F /  17 °C 29.87in /  1011.4hPa ENE 5.3mph /  8.5km/h 14mph /  22.5km/h 57% 0.00in /  0mm 120 W/m2
19:59 78.7 °F /  25.9 °C 62.7 °F /  17.1 °C 29.87in /  1011.4hPa ENE 5.4mph /  8.7km/h 11mph /  17.7km/h 58% 0.00in /  0mm 105 W/m2
20:04 78.4 °F /  25.8 °C 62.3 °F /  16.8 °C 29.87in /  1011.4hPa East 3.7mph /  6km/h 11mph /  17.7km/h 58% 0.00in /  0mm 97 W/m2
20:09 78 °F /  25.6 °C 62.5 °F /  16.9 °C 29.87in /  1011.4hPa ENE 4.3mph /  6.9km/h 13mph /  20.9km/h 59% 0.00in /  0mm 88 W/m2
20:14 77.7 °F /  25.4 °C 62.2 °F /  16.8 °C 29.87in /  1011.4hPa ENE 4.2mph /  6.8km/h 13mph /  20.9km/h 59% 0.00in /  0mm 83 W/m2
20:19 77.4 °F /  25.2 °C 62.6 °F /  17 °C 29.87in /  1011.4hPa ENE 5.3mph /  8.5km/h 12mph /  19.3km/h 60.4% 0.00in /  0mm 49 W/m2
20:24 76.8 °F /  24.9 °C 62.9 °F /  17.2 °C 29.88in /  1011.7hPa NE 8.8mph /  14.2km/h 14mph /  22.5km/h 62.2% 0.00in /  0mm 35 W/m2
20:29 75.9 °F /  24.4 °C 63.2 °F /  17.3 °C 29.88in /  1011.7hPa NE 4.9mph /  7.9km/h 14mph /  22.5km/h 64.8% 0.00in /  0mm 32 W/m2
20:34 75.2 °F /  24 °C 63.2 °F /  17.3 °C 29.88in /  1011.7hPa NE 7.4mph /  11.9km/h 13mph /  20.9km/h 66.4% 0.00in /  0mm 28 W/m2
20:39 74.6 °F /  23.7 °C 63.2 °F /  17.3 °C 29.88in /  1011.7hPa NE 6.8mph /  10.9km/h 13mph /  20.9km/h 67.8% 0.00in /  0mm 28 W/m2
20:44 74 °F /  23.3 °C 63.1 °F /  17.3 °C 29.88in /  1011.7hPa NE 6.2mph /  10km/h 13mph /  20.9km/h 68.8% 0.00in /  0mm 28 W/m2
20:49 73.5 °F /  23.1 °C 62.8 °F /  17.1 °C 29.88in /  1011.7hPa ENE 5.8mph /  9.3km/h 15mph /  24.1km/h 69.4% 0.00in /  0mm 23 W/m2
20:54 72.9 °F /  22.7 °C 62.4 °F /  16.9 °C 29.88in /  1011.7hPa ENE 3.9mph /  6.3km/h 13mph /  20.9km/h 70% 0.00in /  0mm 19 W/m2
20:59 72.3 °F /  22.4 °C 62.4 °F /  16.9 °C 29.88in /  1011.7hPa ENE 5.4mph /  8.7km/h 14mph /  22.5km/h 71% 0.00in /  0mm 18 W/m2
21:04 72 °F /  22.2 °C 62.1 °F /  16.7 °C 29.89in /  1012.1hPa NNE 6.2mph /  10km/h 17mph /  27.4km/h 71% 0.00in /  0mm 16 W/m2
21:09 71.6 °F /  22 °C 62.1 °F /  16.7 °C 29.89in /  1012.1hPa ENE 5.7mph /  9.2km/h 17mph /  27.4km/h 72% 0.00in /  0mm 12 W/m2
21:14 71.2 °F /  21.8 °C 61.9 °F /  16.6 °C 29.89in /  1012.1hPa ENE 5.9mph /  9.5km/h 13mph /  20.9km/h 72.6% 0.00in /  0mm 11 W/m2
21:19 70.9 °F /  21.6 °C 61.8 °F /  16.6 °C 29.89in /  1012.1hPa ENE 5.3mph /  8.5km/h 16mph /  25.7km/h 73% 0.00in /  0mm 7 W/m2
21:24 70.7 °F /  21.5 °C 61.7 °F /  16.5 °C 29.89in /  1012.1hPa ENE 4.6mph /  7.4km/h 18mph /  29km/h 73.2% 0.00in /  0mm 5 W/m2
21:29 70.5 °F /  21.4 °C 61.5 °F /  16.4 °C 29.89in /  1012.1hPa ENE 7.6mph /  12.2km/h 17mph /  27.4km/h 73% 0.00in /  0mm 0 W/m2
21:34 70.3 °F /  21.3 °C 61.3 °F /  16.3 °C 29.89in /  1012.1hPa ENE 6.9mph /  11.1km/h 17mph /  27.4km/h 73% 0.00in /  0mm 0 W/m2
21:39 70.1 °F /  21.2 °C 61.1 °F /  16.2 °C 29.89in /  1012.1hPa ENE 7.6mph /  12.2km/h 18mph /  29km/h 73% 0.00in /  0mm 0 W/m2
21:44 69.6 °F /  20.9 °C 60.9 °F /  16.1 °C 29.90in /  1012.4hPa NNE 10.2mph /  16.4km/h 18mph /  29km/h 73.8% 0.00in /  0mm 0 W/m2
21:49 69.3 °F /  20.7 °C 60.7 °F /  15.9 °C 29.90in /  1012.4hPa ENE 9.4mph /  15.1km/h 18mph /  29km/h 74% 0.00in /  0mm 0 W/m2
21:54 69.2 °F /  20.7 °C 60.5 °F /  15.8 °C 29.90in /  1012.4hPa NE 5.3mph /  8.5km/h 14mph /  22.5km/h 74% 0.00in /  0mm 0 W/m2
21:58 69.1 °F /  20.6 °C 60.6 °F /  15.9 °C 29.90in /  1012.4hPa ENE 4.7mph /  7.6km/h 19mph /  30.6km/h 74.5% 0.00in /  0mm 0 W/m2
22:04 68.8 °F /  20.4 °C 60.5 °F /  15.8 °C 29.90in /  1012.4hPa ENE 6.6mph /  10.6km/h 18mph /  29km/h 75% 0.00in /  0mm 0 W/m2
22:09 68.4 °F /  20.2 °C 60.2 °F /  15.7 °C 29.91in /  1012.8hPa NE 6.5mph /  10.5km/h 15mph /  24.1km/h 75% 0.00in /  0mm 0 W/m2
22:14 68.2 °F /  20.1 °C 59.9 °F /  15.5 °C 29.91in /  1012.8hPa NE 5mph /  8km/h 14mph /  22.5km/h 75% 0.00in /  0mm 0 W/m2
22:19 67.8 °F /  19.9 °C 59.8 °F /  15.4 °C 29.91in /  1012.8hPa NE 2.4mph /  3.9km/h 15mph /  24.1km/h 75.6% 0.00in /  0mm 0 W/m2
22:24 67.7 °F /  19.8 °C 59.8 °F /  15.4 °C 29.91in /  1012.8hPa ENE 6.3mph /  10.1km/h 14mph /  22.5km/h 76% 0.00in /  0mm 0 W/m2
22:29 67.5 °F /  19.7 °C 59.6 °F /  15.3 °C 29.91in /  1012.8hPa ENE 8.6mph /  13.8km/h 16mph /  25.7km/h 76% 0.00in /  0mm 0 W/m2
22:34 67.1 °F /  19.5 °C 59.4 °F /  15.2 °C 29.91in /  1012.8hPa ENE 7.2mph /  11.6km/h 15mph /  24.1km/h 76% 0.00in /  0mm 0 W/m2
22:39 66.6 °F /  19.2 °C 58.8 °F /  14.9 °C 29.91in /  1012.8hPa East 8.4mph /  13.5km/h 13mph /  20.9km/h 76% 0.00in /  0mm 0 W/m2
22:44 66.2 °F /  19 °C 58.7 °F /  14.8 °C 29.91in /  1012.8hPa NE 8.8mph /  14.2km/h 16mph /  25.7km/h 76.8% 0.00in /  0mm 0 W/m2
22:49 65.8 °F /  18.8 °C 58.4 °F /  14.7 °C 29.91in /  1012.8hPa NE 6.4mph /  10.3km/h 16mph /  25.7km/h 77% 0.00in /  0mm 0 W/m2
22:54 65.5 °F /  18.6 °C 58.1 °F /  14.5 °C 29.91in /  1012.8hPa ENE 5mph /  8km/h 13mph /  20.9km/h 77% 0.00in /  0mm 0 W/m2
22:59 65.2 °F /  18.4 °C 57.8 °F /  14.3 °C 29.92in /  1013.1hPa NE 6.2mph /  10km/h 13mph /  20.9km/h 77% 0.00in /  0mm 0 W/m2
23:04 64.9 °F /  18.3 °C 57.6 °F /  14.2 °C 29.92in /  1013.1hPa NE 5.8mph /  9.3km/h 12mph /  19.3km/h 77% 0.00in /  0mm 0 W/m2
23:09 64.8 °F /  18.2 °C 57.4 °F /  14.1 °C 29.92in /  1013.1hPa NE 8.4mph /  13.5km/h 22mph /  35.4km/h 77% 0.00in /  0mm 0 W/m2
23:14 64.5 °F /  18.1 °C 57.1 °F /  13.9 °C 29.91in /  1012.8hPa NE 9.8mph /  15.8km/h 22mph /  35.4km/h 77% 0.00in /  0mm 0 W/m2
23:19 64.1 °F /  17.8 °C 57.1 °F /  13.9 °C 29.92in /  1013.1hPa NE 6.2mph /  10km/h 12mph /  19.3km/h 78% 0.00in /  0mm 0 W/m2
23:24 63.9 °F /  17.7 °C 56.9 °F /  13.8 °C 29.92in /  1013.1hPa NE 6mph /  9.7km/h 15mph /  24.1km/h 78% 0.00in /  0mm 0 W/m2
23:29 63.8 °F /  17.7 °C 56.4 °F /  13.6 °C 29.92in /  1013.1hPa ENE 6.7mph /  10.8km/h 15mph /  24.1km/h 77% 0.00in /  0mm 0 W/m2
23:34 63.5 °F /  17.5 °C 56.2 °F /  13.4 °C 29.92in /  1013.1hPa NE 3mph /  4.8km/h 14mph /  22.5km/h 77.4% 0.00in /  0mm 0 W/m2
23:39 63.1 °F /  17.3 °C 56.1 °F /  13.4 °C 29.92in /  1013.1hPa NE 3.8mph /  6.1km/h 15mph /  24.1km/h 78% 0.00in /  0mm 0 W/m2
23:44 62.9 °F /  17.2 °C 55.9 °F /  13.3 °C 29.92in /  1013.1hPa East 4mph /  6.4km/h 12mph /  19.3km/h 78% 0.00in /  0mm 0 W/m2
23:49 62.7 °F /  17.1 °C 55.7 °F /  13.2 °C 29.92in /  1013.1hPa NE 3.8mph /  6.1km/h 14mph /  22.5km/h 78% 0.00in /  0mm 0 W/m2
23:54 62.4 °F /  16.9 °C 55.4 °F /  13 °C 29.92in /  1013.1hPa East 7.3mph /  11.7km/h 11mph /  17.7km/h 78% 0.00in /  0mm 0 W/m2
23:59 62.2 °F /  16.8 °C 55.6 °F /  13.1 °C 29.92in /  1013.1hPa ENE 4.4mph /  7.1km/h 10mph /  16.1km/h 79% 0.00in /  0mm 0 W/m2
Bath Spa Weather
Compliments of Weather Underground - 2 mb